sensor_id;sensor_type;location;lat;lon;timestamp;P1;durP1;ratioP1;P2;durP2;ratioP2
17595;SDS011;8916;47.086;15.920;2022-08-03T00:00:41;8.65;;;5.30;;
17595;SDS011;8916;47.086;15.920;2022-08-03T00:03:10;7.35;;;4.68;;
17595;SDS011;8916;47.086;15.920;2022-08-03T00:05:39;5.35;;;4.35;;
17595;SDS011;8916;47.086;15.920;2022-08-03T00:08:28;8.80;;;4.55;;
17595;SDS011;8916;47.086;15.920;2022-08-03T00:10:58;7.07;;;4.28;;
17595;SDS011;8916;47.086;15.920;2022-08-03T00:13:29;8.50;;;4.60;;
17595;SDS011;8916;47.086;15.920;2022-08-03T00:15:58;5.05;;;4.35;;
17595;SDS011;8916;47.086;15.920;2022-08-03T00:18:27;6.93;;;4.40;;
17595;SDS011;8916;47.086;15.920;2022-08-03T00:20:56;5.18;;;4.55;;
17595;SDS011;8916;47.086;15.920;2022-08-03T00:23:25;7.32;;;5.05;;
17595;SDS011;8916;47.086;15.920;2022-08-03T00:26:15;8.63;;;4.95;;
17595;SDS011;8916;47.086;15.920;2022-08-03T00:28:45;5.20;;;4.70;;
17595;SDS011;8916;47.086;15.920;2022-08-03T00:31:15;6.85;;;4.32;;
17595;SDS011;8916;47.086;15.920;2022-08-03T00:34:04;7.22;;;4.95;;
17595;SDS011;8916;47.086;15.920;2022-08-03T00:36:34;7.28;;;4.40;;
17595;SDS011;8916;47.086;15.920;2022-08-03T00:39:03;4.93;;;4.43;;
17595;SDS011;8916;47.086;15.920;2022-08-03T00:41:33;4.95;;;4.40;;
17595;SDS011;8916;47.086;15.920;2022-08-03T00:44:03;6.20;;;4.68;;
17595;SDS011;8916;47.086;15.920;2022-08-03T00:46:33;5.15;;;4.20;;
17595;SDS011;8916;47.086;15.920;2022-08-03T00:49:02;8.35;;;4.20;;
17595;SDS011;8916;47.086;15.920;2022-08-03T00:51:31;7.65;;;5.00;;
17595;SDS011;8916;47.086;15.920;2022-08-03T00:54:01;6.32;;;4.53;;
17595;SDS011;8916;47.086;15.920;2022-08-03T00:56:31;8.93;;;4.90;;
17595;SDS011;8916;47.086;15.920;2022-08-03T00:59:00;9.50;;;5.07;;
17595;SDS011;8916;47.086;15.920;2022-08-03T01:01:32;13.05;;;5.28;;
17595;SDS011;8916;47.086;15.920;2022-08-03T01:04:01;8.70;;;4.70;;
17595;SDS011;8916;47.086;15.920;2022-08-03T01:06:33;7.68;;;5.65;;
17595;SDS011;8916;47.086;15.920;2022-08-03T01:09:11;6.50;;;5.60;;
17595;SDS011;8916;47.086;15.920;2022-08-03T01:11:50;12.10;;;5.70;;
17595;SDS011;8916;47.086;15.920;2022-08-03T01:14:31;10.27;;;6.10;;
17595;SDS011;8916;47.086;15.920;2022-08-03T01:17:10;10.23;;;6.30;;
17595;SDS011;8916;47.086;15.920;2022-08-03T01:19:48;8.82;;;7.25;;
17595;SDS011;8916;47.086;15.920;2022-08-03T01:22:50;10.38;;;7.45;;
17595;SDS011;8916;47.086;15.920;2022-08-03T01:25:39;12.10;;;7.70;;
17595;SDS011;8916;47.086;15.920;2022-08-03T01:28:32;12.73;;;8.18;;
17595;SDS011;8916;47.086;15.920;2022-08-03T01:31:34;10.30;;;8.07;;
17595;SDS011;8916;47.086;15.920;2022-08-03T01:34:30;13.85;;;8.32;;
17595;SDS011;8916;47.086;15.920;2022-08-03T01:37:04;8.43;;;7.63;;
17595;SDS011;8916;47.086;15.920;2022-08-03T01:39:38;10.98;;;7.88;;
17595;SDS011;8916;47.086;15.920;2022-08-03T01:42:10;8.20;;;7.25;;
17595;SDS011;8916;47.086;15.920;2022-08-03T01:44:41;13.27;;;8.25;;
17595;SDS011;8916;47.086;15.920;2022-08-03T01:47:14;8.23;;;7.43;;
17595;SDS011;8916;47.086;15.920;2022-08-03T01:49:47;12.95;;;7.32;;
17595;SDS011;8916;47.086;15.920;2022-08-03T01:52:18;9.73;;;6.90;;
17595;SDS011;8916;47.086;15.920;2022-08-03T01:54:50;7.05;;;6.25;;
17595;SDS011;8916;47.086;15.920;2022-08-03T01:57:21;9.77;;;6.18;;
17595;SDS011;8916;47.086;15.920;2022-08-03T01:59:52;9.65;;;6.18;;
17595;SDS011;8916;47.086;15.920;2022-08-03T02:02:26;7.13;;;5.03;;
17595;SDS011;8916;47.086;15.920;2022-08-03T02:05:02;7.35;;;5.68;;
17595;SDS011;8916;47.086;15.920;2022-08-03T02:07:39;6.70;;;5.00;;
17595;SDS011;8916;47.086;15.920;2022-08-03T02:10:10;6.40;;;4.85;;
17595;SDS011;8916;47.086;15.920;2022-08-03T02:13:02;6.70;;;5.18;;
17595;SDS011;8916;47.086;15.920;2022-08-03T02:15:35;13.20;;;5.85;;
17595;SDS011;8916;47.086;15.920;2022-08-03T02:18:07;12.48;;;5.53;;
17595;SDS011;8916;47.086;15.920;2022-08-03T02:20:37;10.40;;;5.60;;
17595;SDS011;8916;47.086;15.920;2022-08-03T02:23:10;8.68;;;5.85;;
17595;SDS011;8916;47.086;15.920;2022-08-03T02:25:40;14.27;;;6.10;;
17595;SDS011;8916;47.086;15.920;2022-08-03T02:28:15;12.95;;;7.57;;
17595;SDS011;8916;47.086;15.920;2022-08-03T02:30:49;13.35;;;7.78;;
17595;SDS011;8916;47.086;15.920;2022-08-03T02:33:25;7.65;;;6.22;;
17595;SDS011;8916;47.086;15.920;2022-08-03T02:35:59;10.43;;;6.57;;
17595;SDS011;8916;47.086;15.920;2022-08-03T02:38:31;8.15;;;5.60;;
17595;SDS011;8916;47.086;15.920;2022-08-03T02:41:04;7.30;;;5.45;;
17595;SDS011;8916;47.086;15.920;2022-08-03T02:43:39;7.95;;;6.50;;
17595;SDS011;8916;47.086;15.920;2022-08-03T02:46:30;8.57;;;7.03;;
17595;SDS011;8916;47.086;15.920;2022-08-03T02:49:06;9.93;;;6.13;;
17595;SDS011;8916;47.086;15.920;2022-08-03T02:51:58;7.60;;;5.82;;
17595;SDS011;8916;47.086;15.920;2022-08-03T02:54:29;7.03;;;6.22;;
17595;SDS011;8916;47.086;15.920;2022-08-03T02:57:00;10.27;;;5.93;;
17595;SDS011;8916;47.086;15.920;2022-08-03T02:59:30;12.65;;;6.18;;
17595;SDS011;8916;47.086;15.920;2022-08-03T03:02:01;6.82;;;5.53;;
17595;SDS011;8916;47.086;15.920;2022-08-03T03:04:32;10.15;;;5.63;;
17595;SDS011;8916;47.086;15.920;2022-08-03T03:07:03;7.05;;;5.60;;
17595;SDS011;8916;47.086;15.920;2022-08-03T03:09:34;8.20;;;5.45;;
17595;SDS011;8916;47.086;15.920;2022-08-03T03:12:10;6.38;;;5.70;;
17595;SDS011;8916;47.086;15.920;2022-08-03T03:14:41;9.02;;;5.65;;
17595;SDS011;8916;47.086;15.920;2022-08-03T03:17:10;6.93;;;5.60;;
17595;SDS011;8916;47.086;15.920;2022-08-03T03:19:44;10.15;;;6.07;;
17595;SDS011;8916;47.086;15.920;2022-08-03T03:22:14;9.35;;;5.68;;
17595;SDS011;8916;47.086;15.920;2022-08-03T03:24:45;7.35;;;5.53;;
17595;SDS011;8916;47.086;15.920;2022-08-03T03:27:16;6.68;;;5.88;;
17595;SDS011;8916;47.086;15.920;2022-08-03T03:29:47;6.60;;;5.65;;
17595;SDS011;8916;47.086;15.920;2022-08-03T03:32:17;9.75;;;5.35;;
17595;SDS011;8916;47.086;15.920;2022-08-03T03:34:48;7.47;;;5.32;;
17595;SDS011;8916;47.086;15.920;2022-08-03T03:37:18;8.57;;;5.22;;
17595;SDS011;8916;47.086;15.920;2022-08-03T03:39:47;6.93;;;5.13;;
17595;SDS011;8916;47.086;15.920;2022-08-03T03:42:17;6.82;;;5.03;;
17595;SDS011;8916;47.086;15.920;2022-08-03T03:44:46;9.10;;;5.32;;
17595;SDS011;8916;47.086;15.920;2022-08-03T03:47:15;9.68;;;5.40;;
17595;SDS011;8916;47.086;15.920;2022-08-03T03:50:00;10.32;;;6.03;;
17595;SDS011;8916;47.086;15.920;2022-08-03T03:52:31;9.23;;;5.40;;
17595;SDS011;8916;47.086;15.920;2022-08-03T03:55:01;11.85;;;6.05;;
17595;SDS011;8916;47.086;15.920;2022-08-03T03:57:30;9.73;;;6.80;;
17595;SDS011;8916;47.086;15.920;2022-08-03T04:00:01;9.57;;;6.22;;
17595;SDS011;8916;47.086;15.920;2022-08-03T04:02:32;12.63;;;6.65;;
17595;SDS011;8916;47.086;15.920;2022-08-03T04:05:03;11.55;;;5.78;;
17595;SDS011;8916;47.086;15.920;2022-08-03T04:07:53;7.03;;;5.70;;
17595;SDS011;8916;47.086;15.920;2022-08-03T04:10:45;8.85;;;6.05;;
17595;SDS011;8916;47.086;15.920;2022-08-03T04:13:28;9.43;;;5.20;;
17595;SDS011;8916;47.086;15.920;2022-08-03T04:18:35;14.55;;;5.80;;
17595;SDS011;8916;47.086;15.920;2022-08-03T04:21:10;7.85;;;6.22;;
17595;SDS011;8916;47.086;15.920;2022-08-03T04:23:43;10.57;;;6.05;;
17595;SDS011;8916;47.086;15.920;2022-08-03T04:26:18;11.80;;;5.72;;
17595;SDS011;8916;47.086;15.920;2022-08-03T04:28:49;14.32;;;5.57;;
17595;SDS011;8916;47.086;15.920;2022-08-03T04:31:20;8.10;;;5.93;;
17595;SDS011;8916;47.086;15.920;2022-08-03T04:33:52;11.02;;;5.70;;
17595;SDS011;8916;47.086;15.920;2022-08-03T04:36:24;6.25;;;5.55;;
17595;SDS011;8916;47.086;15.920;2022-08-03T04:38:59;8.05;;;6.20;;
17595;SDS011;8916;47.086;15.920;2022-08-03T04:41:33;10.85;;;6.47;;
17595;SDS011;8916;47.086;15.920;2022-08-03T04:44:23;8.48;;;5.65;;
17595;SDS011;8916;47.086;15.920;2022-08-03T04:46:55;7.70;;;6.00;;
17595;SDS011;8916;47.086;15.920;2022-08-03T04:49:27;12.35;;;6.20;;
17595;SDS011;8916;47.086;15.920;2022-08-03T04:51:59;7.25;;;6.00;;
17595;SDS011;8916;47.086;15.920;2022-08-03T04:54:29;8.65;;;6.25;;
17595;SDS011;8916;47.086;15.920;2022-08-03T04:56:58;10.73;;;5.43;;
17595;SDS011;8916;47.086;15.920;2022-08-03T04:59:28;8.63;;;5.78;;
17595;SDS011;8916;47.086;15.920;2022-08-03T05:01:57;7.70;;;5.68;;
17595;SDS011;8916;47.086;15.920;2022-08-03T05:04:26;8.48;;;5.30;;
17595;SDS011;8916;47.086;15.920;2022-08-03T05:06:56;12.18;;;5.22;;
17595;SDS011;8916;47.086;15.920;2022-08-03T05:09:39;9.15;;;5.82;;
17595;SDS011;8916;47.086;15.920;2022-08-03T05:12:18;10.05;;;5.50;;
17595;SDS011;8916;47.086;15.920;2022-08-03T05:14:47;11.23;;;5.00;;
17595;SDS011;8916;47.086;15.920;2022-08-03T05:17:17;6.03;;;5.13;;
17595;SDS011;8916;47.086;15.920;2022-08-03T05:19:46;8.07;;;5.05;;
17595;SDS011;8916;47.086;15.920;2022-08-03T05:22:16;6.43;;;5.35;;
17595;SDS011;8916;47.086;15.920;2022-08-03T05:24:46;7.47;;;5.57;;
17595;SDS011;8916;47.086;15.920;2022-08-03T05:27:16;10.18;;;5.50;;
17595;SDS011;8916;47.086;15.920;2022-08-03T05:29:46;6.32;;;4.60;;
17595;SDS011;8916;47.086;15.920;2022-08-03T05:32:17;7.63;;;5.40;;
17595;SDS011;8916;47.086;15.920;2022-08-03T05:34:47;11.63;;;6.05;;
17595;SDS011;8916;47.086;15.920;2022-08-03T05:37:16;7.35;;;5.30;;
17595;SDS011;8916;47.086;15.920;2022-08-03T05:39:47;8.00;;;5.32;;
17595;SDS011;8916;47.086;15.920;2022-08-03T05:42:16;6.15;;;5.07;;
17595;SDS011;8916;47.086;15.920;2022-08-03T05:44:45;8.13;;;5.25;;
17595;SDS011;8916;47.086;15.920;2022-08-03T05:47:15;7.13;;;4.90;;
17595;SDS011;8916;47.086;15.920;2022-08-03T05:49:44;7.95;;;4.80;;
17595;SDS011;8916;47.086;15.920;2022-08-03T05:52:13;6.78;;;4.53;;
17595;SDS011;8916;47.086;15.920;2022-08-03T05:54:44;6.03;;;4.28;;
17595;SDS011;8916;47.086;15.920;2022-08-03T05:57:25;5.70;;;4.35;;
17595;SDS011;8916;47.086;15.920;2022-08-03T05:59:54;8.68;;;4.43;;
17595;SDS011;8916;47.086;15.920;2022-08-03T06:02:25;5.32;;;4.43;;
17595;SDS011;8916;47.086;15.920;2022-08-03T06:04:54;7.53;;;5.20;;
17595;SDS011;8916;47.086;15.920;2022-08-03T06:07:23;7.88;;;4.30;;
17595;SDS011;8916;47.086;15.920;2022-08-03T06:09:53;6.82;;;4.00;;
17595;SDS011;8916;47.086;15.920;2022-08-03T06:12:43;4.57;;;4.05;;
17595;SDS011;8916;47.086;15.920;2022-08-03T06:15:15;9.75;;;4.78;;
17595;SDS011;8916;47.086;15.920;2022-08-03T06:17:46;6.95;;;4.30;;
17595;SDS011;8916;47.086;15.920;2022-08-03T06:20:16;6.45;;;3.88;;
17595;SDS011;8916;47.086;15.920;2022-08-03T06:22:53;7.10;;;3.83;;
17595;SDS011;8916;47.086;15.920;2022-08-03T06:25:27;5.15;;;4.28;;
17595;SDS011;8916;47.086;15.920;2022-08-03T06:27:58;5.90;;;4.15;;
17595;SDS011;8916;47.086;15.920;2022-08-03T06:30:27;4.72;;;4.20;;
17595;SDS011;8916;47.086;15.920;2022-08-03T06:32:56;8.80;;;4.43;;
17595;SDS011;8916;47.086;15.920;2022-08-03T06:35:26;5.03;;;4.10;;
17595;SDS011;8916;47.086;15.920;2022-08-03T06:37:55;7.45;;;4.15;;
17595;SDS011;8916;47.086;15.920;2022-08-03T06:40:26;6.15;;;4.22;;
17595;SDS011;8916;47.086;15.920;2022-08-03T06:42:59;11.50;;;5.65;;
17595;SDS011;8916;47.086;15.920;2022-08-03T06:45:30;16.38;;;7.78;;
17595;SDS011;8916;47.086;15.920;2022-08-03T06:48:00;4.80;;;4.13;;
17595;SDS011;8916;47.086;15.920;2022-08-03T06:50:33;6.82;;;4.20;;
17595;SDS011;8916;47.086;15.920;2022-08-03T06:53:04;5.85;;;3.60;;
17595;SDS011;8916;47.086;15.920;2022-08-03T06:55:44;4.47;;;3.50;;
17595;SDS011;8916;47.086;15.920;2022-08-03T06:58:21;8.60;;;3.60;;
17595;SDS011;8916;47.086;15.920;2022-08-03T07:00:51;4.20;;;3.40;;
17595;SDS011;8916;47.086;15.920;2022-08-03T07:03:22;5.28;;;4.10;;
17595;SDS011;8916;47.086;15.920;2022-08-03T07:05:52;6.05;;;3.63;;
17595;SDS011;8916;47.086;15.920;2022-08-03T07:08:21;4.70;;;3.13;;
17595;SDS011;8916;47.086;15.920;2022-08-03T07:11:00;7.35;;;3.30;;
17595;SDS011;8916;47.086;15.920;2022-08-03T07:13:31;5.32;;;3.53;;
17595;SDS011;8916;47.086;15.920;2022-08-03T07:16:01;7.25;;;3.78;;
17595;SDS011;8916;47.086;15.920;2022-08-03T07:18:30;6.13;;;3.47;;
17595;SDS011;8916;47.086;15.920;2022-08-03T07:20:59;5.15;;;2.75;;
17595;SDS011;8916;47.086;15.920;2022-08-03T07:23:28;5.03;;;2.90;;
17595;SDS011;8916;47.086;15.920;2022-08-03T07:25:58;8.05;;;2.97;;
17595;SDS011;8916;47.086;15.920;2022-08-03T07:28:27;4.18;;;3.00;;
17595;SDS011;8916;47.086;15.920;2022-08-03T07:30:58;5.28;;;2.60;;
17595;SDS011;8916;47.086;15.920;2022-08-03T07:33:27;5.30;;;2.63;;
17595;SDS011;8916;47.086;15.920;2022-08-03T07:35:56;3.80;;;2.70;;
17595;SDS011;8916;47.086;15.920;2022-08-03T07:38:26;9.23;;;3.15;;
17595;SDS011;8916;47.086;15.920;2022-08-03T07:40:56;3.92;;;2.92;;
17595;SDS011;8916;47.086;15.920;2022-08-03T07:43:25;7.47;;;3.10;;
17595;SDS011;8916;47.086;15.920;2022-08-03T07:45:55;7.40;;;2.80;;
17595;SDS011;8916;47.086;15.920;2022-08-03T07:48:28;4.70;;;2.90;;
17595;SDS011;8916;47.086;15.920;2022-08-03T07:50:57;3.97;;;2.80;;
17595;SDS011;8916;47.086;15.920;2022-08-03T07:53:26;3.33;;;2.70;;
17595;SDS011;8916;47.086;15.920;2022-08-03T07:55:56;5.57;;;3.05;;
17595;SDS011;8916;47.086;15.920;2022-08-03T07:58:26;9.00;;;3.03;;
17595;SDS011;8916;47.086;15.920;2022-08-03T08:00:56;6.40;;;2.90;;
17595;SDS011;8916;47.086;15.920;2022-08-03T08:03:25;6.47;;;2.97;;
17595;SDS011;8916;47.086;15.920;2022-08-03T08:06:16;10.80;;;3.50;;
17595;SDS011;8916;47.086;15.920;2022-08-03T08:08:45;9.05;;;2.85;;
17595;SDS011;8916;47.086;15.920;2022-08-03T08:11:14;12.43;;;4.75;;
17595;SDS011;8916;47.086;15.920;2022-08-03T08:13:44;10.77;;;4.97;;
17595;SDS011;8916;47.086;15.920;2022-08-03T08:16:13;8.27;;;3.35;;
17595;SDS011;8916;47.086;15.920;2022-08-03T08:18:42;7.20;;;2.70;;
17595;SDS011;8916;47.086;15.920;2022-08-03T08:21:12;5.55;;;2.53;;
17595;SDS011;8916;47.086;15.920;2022-08-03T08:23:42;3.40;;;2.10;;
17595;SDS011;8916;47.086;15.920;2022-08-03T08:26:24;4.72;;;2.15;;
17595;SDS011;8916;47.086;15.920;2022-08-03T08:28:53;6.90;;;2.90;;
17595;SDS011;8916;47.086;15.920;2022-08-03T08:31:23;5.45;;;2.38;;
17595;SDS011;8916;47.086;15.920;2022-08-03T08:33:52;3.70;;;2.00;;
17595;SDS011;8916;47.086;15.920;2022-08-03T08:36:31;3.85;;;1.90;;
17595;SDS011;8916;47.086;15.920;2022-08-03T08:39:03;5.82;;;1.83;;
17595;SDS011;8916;47.086;15.920;2022-08-03T08:41:32;2.70;;;2.15;;
17595;SDS011;8916;47.086;15.920;2022-08-03T08:44:02;4.15;;;2.15;;
17595;SDS011;8916;47.086;15.920;2022-08-03T08:46:34;5.13;;;2.30;;
17595;SDS011;8916;47.086;15.920;2022-08-03T08:49:06;2.92;;;2.45;;
17595;SDS011;8916;47.086;15.920;2022-08-03T08:51:38;4.55;;;2.20;;
17595;SDS011;8916;47.086;15.920;2022-08-03T08:54:28;2.80;;;2.47;;
17595;SDS011;8916;47.086;15.920;2022-08-03T08:57:01;2.85;;;2.20;;
17595;SDS011;8916;47.086;15.920;2022-08-03T08:59:51;4.47;;;2.22;;
17595;SDS011;8916;47.086;15.920;2022-08-03T09:02:23;3.00;;;2.13;;
17595;SDS011;8916;47.086;15.920;2022-08-03T09:04:55;2.78;;;2.00;;
17595;SDS011;8916;47.086;15.920;2022-08-03T09:07:27;3.45;;;2.40;;
17595;SDS011;8916;47.086;15.920;2022-08-03T09:09:59;3.85;;;2.40;;
17595;SDS011;8916;47.086;15.920;2022-08-03T09:12:40;13.60;;;3.58;;
17595;SDS011;8916;47.086;15.920;2022-08-03T09:15:16;3.17;;;2.38;;
17595;SDS011;8916;47.086;15.920;2022-08-03T09:17:47;3.47;;;2.25;;
17595;SDS011;8916;47.086;15.920;2022-08-03T09:20:18;4.25;;;2.35;;
17595;SDS011;8916;47.086;15.920;2022-08-03T09:22:53;3.53;;;2.25;;
17595;SDS011;8916;47.086;15.920;2022-08-03T09:25:27;3.23;;;2.20;;
17595;SDS011;8916;47.086;15.920;2022-08-03T09:28:08;9.85;;;2.65;;
17595;SDS011;8916;47.086;15.920;2022-08-03T09:30:38;6.65;;;2.25;;
17595;SDS011;8916;47.086;15.920;2022-08-03T09:33:11;6.72;;;2.92;;
17595;SDS011;8916;47.086;15.920;2022-08-03T09:35:43;2.00;;;1.75;;
17595;SDS011;8916;47.086;15.920;2022-08-03T09:38:21;3.22;;;2.20;;
17595;SDS011;8916;47.086;15.920;2022-08-03T09:40:54;3.60;;;2.00;;
17595;SDS011;8916;47.086;15.920;2022-08-03T09:43:27;5.25;;;2.67;;
17595;SDS011;8916;47.086;15.920;2022-08-03T09:46:13;6.40;;;2.55;;
17595;SDS011;8916;47.086;15.920;2022-08-03T09:48:42;3.17;;;2.13;;
17595;SDS011;8916;47.086;15.920;2022-08-03T09:51:12;7.13;;;2.05;;
17595;SDS011;8916;47.086;15.920;2022-08-03T09:54:01;2.58;;;1.50;;
17595;SDS011;8916;47.086;15.920;2022-08-03T09:56:43;3.20;;;2.08;;
17595;SDS011;8916;47.086;15.920;2022-08-03T09:59:21;3.67;;;1.80;;
17595;SDS011;8916;47.086;15.920;2022-08-03T10:01:53;3.25;;;2.00;;
17595;SDS011;8916;47.086;15.920;2022-08-03T10:04:23;6.30;;;2.35;;
17595;SDS011;8916;47.086;15.920;2022-08-03T10:07:03;3.22;;;1.73;;
17595;SDS011;8916;47.086;15.920;2022-08-03T10:09:34;4.63;;;2.10;;
17595;SDS011;8916;47.086;15.920;2022-08-03T10:12:09;4.15;;;2.20;;
17595;SDS011;8916;47.086;15.920;2022-08-03T10:14:41;2.05;;;1.85;;
17595;SDS011;8916;47.086;15.920;2022-08-03T10:17:12;2.25;;;1.65;;
17595;SDS011;8916;47.086;15.920;2022-08-03T10:19:41;4.00;;;2.03;;
17595;SDS011;8916;47.086;15.920;2022-08-03T10:22:11;5.40;;;1.83;;
17595;SDS011;8916;47.086;15.920;2022-08-03T10:24:45;2.78;;;1.73;;
17595;SDS011;8916;47.086;15.920;2022-08-03T10:27:22;3.97;;;1.83;;
17595;SDS011;8916;47.086;15.920;2022-08-03T10:29:53;1.80;;;1.70;;
17595;SDS011;8916;47.086;15.920;2022-08-03T10:32:29;3.45;;;1.80;;
17595;SDS011;8916;47.086;15.920;2022-08-03T10:35:03;3.78;;;1.90;;
17595;SDS011;8916;47.086;15.920;2022-08-03T10:37:49;5.20;;;1.67;;
17595;SDS011;8916;47.086;15.920;2022-08-03T10:40:25;2.75;;;2.30;;
17595;SDS011;8916;47.086;15.920;2022-08-03T10:43:19;2.50;;;2.20;;
17595;SDS011;8916;47.086;15.920;2022-08-03T10:45:50;2.30;;;1.83;;
17595;SDS011;8916;47.086;15.920;2022-08-03T10:48:19;3.85;;;1.80;;
17595;SDS011;8916;47.086;15.920;2022-08-03T10:50:49;2.33;;;1.90;;
17595;SDS011;8916;47.086;15.920;2022-08-03T10:53:32;4.20;;;1.88;;
17595;SDS011;8916;47.086;15.920;2022-08-03T10:56:03;3.97;;;1.73;;
17595;SDS011;8916;47.086;15.920;2022-08-03T10:59:12;1.92;;;1.70;;
17595;SDS011;8916;47.086;15.920;2022-08-03T11:01:55;3.20;;;2.00;;
17595;SDS011;8916;47.086;15.920;2022-08-03T11:04:27;2.03;;;1.85;;
17595;SDS011;8916;47.086;15.920;2022-08-03T11:09:50;3.15;;;2.30;;
17595;SDS011;8916;47.086;15.920;2022-08-03T11:12:22;3.13;;;2.22;;
17595;SDS011;8916;47.086;15.920;2022-08-03T11:14:59;2.92;;;2.00;;
17595;SDS011;8916;47.086;15.920;2022-08-03T11:17:35;3.17;;;2.00;;
17595;SDS011;8916;47.086;15.920;2022-08-03T11:23:14;1.85;;;1.75;;
17595;SDS011;8916;47.086;15.920;2022-08-03T11:26:15;1.77;;;1.60;;
17595;SDS011;8916;47.086;15.920;2022-08-03T11:28:49;2.75;;;1.80;;
17595;SDS011;8916;47.086;15.920;2022-08-03T11:34:18;3.50;;;2.00;;
17595;SDS011;8916;47.086;15.920;2022-08-03T11:39:56;2.08;;;1.88;;
17595;SDS011;8916;47.086;15.920;2022-08-03T11:42:38;2.25;;;2.00;;
17595;SDS011;8916;47.086;15.920;2022-08-03T11:45:17;3.25;;;2.15;;
17595;SDS011;8916;47.086;15.920;2022-08-03T11:47:47;2.88;;;1.95;;
17595;SDS011;8916;47.086;15.920;2022-08-03T11:50:21;7.78;;;2.03;;
17595;SDS011;8916;47.086;15.920;2022-08-03T11:52:50;2.72;;;1.98;;
17595;SDS011;8916;47.086;15.920;2022-08-03T11:55:20;1.70;;;1.60;;
17595;SDS011;8916;47.086;15.920;2022-08-03T11:57:52;1.98;;;1.70;;
17595;SDS011;8916;47.086;15.920;2022-08-03T12:00:48;2.55;;;1.73;;
17595;SDS011;8916;47.086;15.920;2022-08-03T12:03:19;2.85;;;1.70;;
17595;SDS011;8916;47.086;15.920;2022-08-03T12:05:49;3.03;;;2.13;;
17595;SDS011;8916;47.086;15.920;2022-08-03T12:08:30;2.42;;;1.70;;
17595;SDS011;8916;47.086;15.920;2022-08-03T12:11:01;3.92;;;1.60;;
17595;SDS011;8916;47.086;15.920;2022-08-03T12:13:40;2.00;;;1.80;;
17595;SDS011;8916;47.086;15.920;2022-08-03T12:19:03;2.75;;;1.58;;
17595;SDS011;8916;47.086;15.920;2022-08-03T12:21:38;1.70;;;1.60;;
17595;SDS011;8916;47.086;15.920;2022-08-03T12:24:23;2.60;;;1.60;;
17595;SDS011;8916;47.086;15.920;2022-08-03T12:26:55;3.10;;;2.08;;
17595;SDS011;8916;47.086;15.920;2022-08-03T12:29:26;2.20;;;1.80;;
17595;SDS011;8916;47.086;15.920;2022-08-03T12:31:55;1.67;;;1.55;;
17595;SDS011;8916;47.086;15.920;2022-08-03T12:37:17;1.92;;;1.70;;
17595;SDS011;8916;47.086;15.920;2022-08-03T12:39:49;3.60;;;1.70;;
17595;SDS011;8916;47.086;15.920;2022-08-03T12:42:30;3.58;;;1.58;;
17595;SDS011;8916;47.086;15.920;2022-08-03T12:47:50;1.83;;;1.67;;
17595;SDS011;8916;47.086;15.920;2022-08-03T12:50:29;3.45;;;1.63;;
17595;SDS011;8916;47.086;15.920;2022-08-03T12:53:02;2.60;;;1.70;;
17595;SDS011;8916;47.086;15.920;2022-08-03T12:55:35;3.03;;;1.70;;
17595;SDS011;8916;47.086;15.920;2022-08-03T12:58:29;1.67;;;1.58;;
17595;SDS011;8916;47.086;15.920;2022-08-03T13:01:01;3.03;;;1.95;;
17595;SDS011;8916;47.086;15.920;2022-08-03T13:03:40;2.25;;;1.70;;
17595;SDS011;8916;47.086;15.920;2022-08-03T13:06:21;4.68;;;1.77;;
17595;SDS011;8916;47.086;15.920;2022-08-03T13:09:03;2.95;;;1.60;;
17595;SDS011;8916;47.086;15.920;2022-08-03T13:11:33;1.70;;;1.60;;
17595;SDS011;8916;47.086;15.920;2022-08-03T13:14:23;1.85;;;1.60;;
17595;SDS011;8916;47.086;15.920;2022-08-03T13:16:53;2.17;;;1.88;;
17595;SDS011;8916;47.086;15.920;2022-08-03T13:19:22;1.92;;;1.60;;
17595;SDS011;8916;47.086;15.920;2022-08-03T13:21:53;2.63;;;1.80;;
17595;SDS011;8916;47.086;15.920;2022-08-03T13:24:31;6.15;;;3.63;;
17595;SDS011;8916;47.086;15.920;2022-08-03T13:27:01;3.08;;;1.95;;
17595;SDS011;8916;47.086;15.920;2022-08-03T13:29:52;4.10;;;1.90;;
17595;SDS011;8916;47.086;15.920;2022-08-03T13:32:22;2.35;;;2.00;;
17595;SDS011;8916;47.086;15.920;2022-08-03T13:34:51;1.40;;;1.30;;
17595;SDS011;8916;47.086;15.920;2022-08-03T13:37:22;2.20;;;1.75;;
17595;SDS011;8916;47.086;15.920;2022-08-03T13:39:52;3.17;;;1.80;;
17595;SDS011;8916;47.086;15.920;2022-08-03T13:42:26;1.60;;;1.50;;
17595;SDS011;8916;47.086;15.920;2022-08-03T13:44:57;5.05;;;1.92;;
17595;SDS011;8916;47.086;15.920;2022-08-03T13:47:27;2.90;;;2.00;;
17595;SDS011;8916;47.086;15.920;2022-08-03T13:49:57;2.88;;;1.80;;
17595;SDS011;8916;47.086;15.920;2022-08-03T13:52:31;2.67;;;1.65;;
17595;SDS011;8916;47.086;15.920;2022-08-03T13:55:03;1.88;;;1.73;;
17595;SDS011;8916;47.086;15.920;2022-08-03T13:57:34;3.67;;;1.70;;
17595;SDS011;8916;47.086;15.920;2022-08-03T14:00:23;2.10;;;1.90;;
17595;SDS011;8916;47.086;15.920;2022-08-03T14:02:56;2.47;;;2.15;;
17595;SDS011;8916;47.086;15.920;2022-08-03T14:05:38;2.78;;;2.00;;
17595;SDS011;8916;47.086;15.920;2022-08-03T14:08:10;2.65;;;1.83;;
17595;SDS011;8916;47.086;15.920;2022-08-03T14:10:40;2.15;;;1.95;;
17595;SDS011;8916;47.086;15.920;2022-08-03T14:13:11;2.10;;;1.80;;
17595;SDS011;8916;47.086;15.920;2022-08-03T14:15:44;1.83;;;1.70;;
17595;SDS011;8916;47.086;15.920;2022-08-03T14:18:17;2.25;;;1.77;;
17595;SDS011;8916;47.086;15.920;2022-08-03T14:21:00;2.47;;;1.85;;
17595;SDS011;8916;47.086;15.920;2022-08-03T14:23:35;2.88;;;1.90;;
17595;SDS011;8916;47.086;15.920;2022-08-03T14:26:05;1.95;;;1.80;;
17595;SDS011;8916;47.086;15.920;2022-08-03T14:28:35;2.10;;;1.90;;
17595;SDS011;8916;47.086;15.920;2022-08-03T14:31:04;2.92;;;1.70;;
17595;SDS011;8916;47.086;15.920;2022-08-03T14:33:54;4.22;;;1.90;;
17595;SDS011;8916;47.086;15.920;2022-08-03T14:36:23;1.98;;;1.83;;
17595;SDS011;8916;47.086;15.920;2022-08-03T14:38:54;2.15;;;1.83;;
17595;SDS011;8916;47.086;15.920;2022-08-03T14:41:27;2.05;;;1.70;;
17595;SDS011;8916;47.086;15.920;2022-08-03T14:43:56;2.55;;;1.90;;
17595;SDS011;8916;47.086;15.920;2022-08-03T14:46:28;2.88;;;1.80;;
17595;SDS011;8916;47.086;15.920;2022-08-03T14:48:58;1.83;;;1.50;;
17595;SDS011;8916;47.086;15.920;2022-08-03T14:51:48;3.58;;;1.83;;
17595;SDS011;8916;47.086;15.920;2022-08-03T14:54:21;1.85;;;1.75;;
17595;SDS011;8916;47.086;15.920;2022-08-03T14:56:50;2.03;;;1.90;;
17595;SDS011;8916;47.086;15.920;2022-08-03T14:59:20;1.98;;;1.70;;
17595;SDS011;8916;47.086;15.920;2022-08-03T15:01:49;2.78;;;1.88;;
17595;SDS011;8916;47.086;15.920;2022-08-03T15:04:33;2.17;;;1.98;;
17595;SDS011;8916;47.086;15.920;2022-08-03T15:07:03;2.00;;;1.75;;
17595;SDS011;8916;47.086;15.920;2022-08-03T15:09:34;1.90;;;1.80;;
17595;SDS011;8916;47.086;15.920;2022-08-03T15:12:05;2.03;;;1.88;;
17595;SDS011;8916;47.086;15.920;2022-08-03T15:14:34;3.92;;;2.10;;
17595;SDS011;8916;47.086;15.920;2022-08-03T15:17:04;2.40;;;1.98;;
17595;SDS011;8916;47.086;15.920;2022-08-03T15:19:34;3.00;;;2.00;;
17595;SDS011;8916;47.086;15.920;2022-08-03T15:22:24;3.83;;;1.85;;
17595;SDS011;8916;47.086;15.920;2022-08-03T15:25:03;1.70;;;1.60;;
17595;SDS011;8916;47.086;15.920;2022-08-03T15:27:52;2.10;;;1.77;;
17595;SDS011;8916;47.086;15.920;2022-08-03T15:30:30;2.60;;;2.20;;
17595;SDS011;8916;47.086;15.920;2022-08-03T15:33:03;1.95;;;1.80;;
17595;SDS011;8916;47.086;15.920;2022-08-03T15:35:33;2.13;;;1.80;;
17595;SDS011;8916;47.086;15.920;2022-08-03T15:38:03;4.55;;;1.83;;
17595;SDS011;8916;47.086;15.920;2022-08-03T15:40:37;1.83;;;1.60;;
17595;SDS011;8916;47.086;15.920;2022-08-03T15:43:06;2.90;;;1.80;;
17595;SDS011;8916;47.086;15.920;2022-08-03T15:45:35;2.85;;;1.80;;
17595;SDS011;8916;47.086;15.920;2022-08-03T15:48:08;3.83;;;1.70;;